Terminal Aerodrome Forecast
Issued by NWS Twin Cities, MN

Home | Current Version | Previous Version | Graphics & Text | Print | Product List | Glossary On
Versions: 1 2 3 4 5 6 7 8 9 10 11 12 13 14 15 16 17 18 19 20 21 22 23 24 25
000
FTUS43 KMPX 020520
TAFMSP
TAF
KMSP 020520Z 0206/0312 23008KT P6SM FEW120
     FM021400 28009KT P6SM SKC
     FM021700 31015G24KT P6SM SCT060
     FM030200 31009KT P6SM SKC=

USA.gov is the U.S. government's official web portal to all federal, state and local government web resources and services.